createdAt,value
2018-12-27T00:01:48.023Z,17.50
2018-12-27T00:04:18.351Z,16.03
2018-12-27T00:06:48.721Z,16.47
2018-12-27T00:09:19.060Z,16.77
2018-12-27T00:11:49.399Z,18.17
2018-12-27T00:14:19.732Z,16.80
2018-12-27T00:16:50.091Z,18.40
2018-12-27T00:19:20.434Z,17.50
2018-12-27T00:21:50.851Z,17.57
2018-12-27T00:24:21.183Z,19.97
2018-12-27T00:26:51.511Z,17.67
2018-12-27T00:29:21.847Z,16.50
2018-12-27T00:31:52.330Z,19.73
2018-12-27T00:34:22.851Z,20.17
2018-12-27T00:36:53.345Z,16.63
2018-12-27T00:39:23.874Z,19.80
2018-12-27T00:41:54.427Z,19.67
2018-12-27T00:44:24.936Z,21.23
2018-12-27T00:46:55.500Z,24.37
2018-12-27T00:49:26.392Z,21.47
2018-12-27T00:51:56.915Z,18.33
2018-12-27T00:54:27.419Z,19.10
2018-12-27T00:56:58.043Z,19.80
2018-12-27T00:59:28.536Z,20.93
2018-12-27T01:01:59.076Z,16.87
2018-12-27T01:04:29.559Z,24.20
2018-12-27T01:07:00.051Z,24.07
2018-12-27T01:09:30.572Z,15.80
2018-12-27T01:12:01.055Z,18.17
2018-12-27T01:14:31.547Z,19.67
2018-12-27T01:17:02.079Z,19.33
2018-12-27T01:19:32.583Z,17.27
2018-12-27T01:22:03.101Z,14.33
2018-12-27T01:24:33.583Z,13.60
2018-12-27T01:27:04.108Z,15.47
2018-12-27T01:29:34.591Z,16.77
2018-12-27T01:32:05.127Z,15.37
2018-12-27T01:34:35.617Z,13.47
2018-12-27T01:37:06.191Z,12.00
2018-12-27T01:39:36.707Z,16.47
2018-12-27T01:42:07.188Z,14.40
2018-12-27T01:44:37.705Z,12.20
2018-12-27T01:47:08.220Z,11.23
2018-12-27T01:49:38.739Z,11.20
2018-12-27T01:52:09.219Z,12.43
2018-12-27T01:54:39.735Z,10.87
2018-12-27T01:57:10.228Z,11.43
2018-12-27T01:59:40.739Z,11.93
2018-12-27T02:02:11.232Z,10.00
2018-12-27T02:04:41.751Z,12.83
2018-12-27T02:07:12.243Z,11.60
2018-12-27T02:09:43.312Z,11.93
2018-12-27T02:12:13.802Z,13.23
2018-12-27T02:14:44.319Z,11.80
2018-12-27T02:17:14.823Z,11.20
2018-12-27T02:19:45.311Z,13.23
2018-12-27T02:22:16.771Z,11.27
2018-12-27T02:24:47.253Z,10.43
2018-12-27T02:27:18.167Z,10.47
2018-12-27T02:29:48.655Z,13.03
2018-12-27T02:32:19.320Z,10.37
2018-12-27T02:34:49.870Z,12.00
2018-12-27T02:37:20.464Z,11.17
2018-12-27T02:39:50.944Z,11.40
2018-12-27T02:42:21.463Z,11.40
2018-12-27T02:44:51.947Z,10.60
2018-12-27T02:47:22.544Z,11.67
2018-12-27T02:49:53.075Z,13.00
2018-12-27T02:52:23.940Z,10.53
2018-12-27T02:54:54.445Z,12.47
2018-12-27T02:57:24.960Z,14.97
2018-12-27T02:59:55.451Z,14.33
2018-12-27T03:02:25.932Z,14.80
2018-12-27T03:04:56.445Z,15.87
2018-12-27T03:07:26.998Z,14.00
2018-12-27T03:09:57.480Z,14.10
2018-12-27T03:12:28.282Z,17.10
2018-12-27T03:14:58.805Z,13.50
2018-12-27T03:17:29.754Z,23.43
2018-12-27T03:20:00.368Z,19.13
2018-12-27T03:22:30.859Z,19.93
2018-12-27T03:25:01.350Z,20.20
2018-12-27T03:27:31.921Z,19.43
2018-12-27T03:30:02.786Z,19.83
2018-12-27T03:32:33.416Z,18.97
2018-12-27T03:35:03.899Z,18.33
2018-12-27T03:37:34.745Z,18.03
2018-12-27T03:40:05.241Z,22.13
2018-12-27T03:42:35.839Z,23.17
2018-12-27T03:45:07.410Z,21.73
2018-12-27T03:47:37.980Z,21.50
2018-12-27T03:50:08.641Z,27.17
2018-12-27T03:52:39.488Z,21.13
2018-12-27T03:55:09.989Z,19.90
2018-12-27T03:57:40.544Z,22.53
2018-12-27T04:00:11.040Z,23.20
2018-12-27T04:02:41.524Z,18.40
2018-12-27T04:05:12.053Z,26.07
2018-12-27T04:07:42.551Z,20.40
2018-12-27T04:10:13.106Z,20.20
2018-12-27T04:12:44.005Z,21.73
2018-12-27T04:15:14.509Z,22.13
2018-12-27T04:17:45.911Z,23.60
2018-12-27T04:20:16.247Z,21.67
2018-12-27T04:22:46.591Z,22.30
2018-12-27T04:25:16.343Z,23.63
2018-12-27T04:27:46.601Z,26.87
2018-12-27T04:30:17.176Z,23.17
2018-12-27T04:32:47.707Z,26.87
2018-12-27T04:35:18.067Z,28.50
2018-12-27T04:37:48.427Z,22.00
2018-12-27T04:40:18.848Z,25.27
2018-12-27T04:42:49.591Z,27.03
2018-12-27T04:45:19.933Z,31.67
2018-12-27T04:47:50.628Z,28.37
2018-12-27T04:50:20.995Z,27.43
2018-12-27T04:52:51.324Z,27.60
2018-12-27T04:55:21.692Z,31.97
2018-12-27T04:57:52.367Z,30.57
2018-12-27T05:00:22.749Z,27.93
2018-12-27T05:02:53.427Z,28.57
2018-12-27T05:05:23.813Z,35.00
2018-12-27T05:07:54.507Z,34.00
2018-12-27T05:10:28.016Z,31.00
2018-12-27T05:12:58.355Z,29.00
2018-12-27T05:15:28.693Z,29.40
2018-12-27T05:17:59.200Z,34.20
2018-12-27T05:20:29.563Z,43.13
2018-12-27T05:22:59.976Z,29.90
2018-12-27T05:25:30.732Z,28.43
2018-12-27T05:28:01.111Z,33.13
2018-12-27T05:30:31.514Z,25.37
2018-12-27T05:33:01.879Z,29.37
2018-12-27T05:35:32.645Z,28.37
2018-12-27T05:38:03.041Z,27.33
2018-12-27T05:40:33.459Z,22.70
2018-12-27T05:43:03.796Z,29.10
2018-12-27T05:45:34.183Z,33.87
2018-12-27T05:48:04.531Z,27.83
2018-12-27T05:50:34.943Z,26.77
2018-12-27T05:53:05.288Z,28.50
2018-12-27T05:55:35.671Z,35.53
2018-12-27T05:58:06.011Z,26.30
2018-12-27T06:00:36.376Z,30.43
2018-12-27T06:03:06.061Z,26.03
2018-12-27T06:05:36.366Z,28.57
2018-12-27T06:08:06.122Z,23.57
2018-12-27T06:10:36.399Z,28.37
2018-12-27T06:13:06.803Z,26.27
2018-12-27T06:15:37.211Z,28.23
2018-12-27T06:18:07.575Z,28.47
2018-12-27T06:20:37.919Z,25.50
2018-12-27T06:23:08.275Z,23.30
2018-12-27T06:25:50.967Z,26.47
2018-12-27T06:28:21.411Z,23.80
2018-12-27T06:30:51.783Z,27.90
2018-12-27T06:33:22.123Z,25.07
2018-12-27T06:35:52.500Z,26.73
2018-12-27T06:38:22.848Z,26.67
2018-12-27T06:40:53.327Z,29.40
2018-12-27T06:43:23.683Z,30.43
2018-12-27T06:45:54.063Z,27.73
2018-12-27T06:48:24.415Z,27.20
2018-12-27T06:50:54.824Z,33.93
2018-12-27T06:53:25.191Z,28.80
2018-12-27T06:55:55.555Z,29.47
2018-12-27T06:58:25.924Z,28.73
2018-12-27T07:00:56.292Z,31.37
2018-12-27T07:03:26.678Z,29.47
2018-12-27T07:05:57.087Z,30.20
2018-12-27T07:08:27.475Z,33.07
2018-12-27T07:10:57.807Z,29.33
2018-12-27T07:13:28.180Z,31.00
2018-12-27T07:15:58.583Z,27.87
2018-12-27T07:18:28.970Z,28.90
2018-12-27T07:20:59.303Z,30.57
2018-12-27T07:23:29.680Z,29.63
2018-12-27T07:26:00.023Z,29.97
2018-12-27T07:28:30.414Z,24.87
2018-12-27T07:31:00.216Z,29.43
2018-12-27T07:33:30.531Z,30.17
2018-12-27T07:36:03.320Z,27.47
2018-12-27T07:38:33.655Z,34.23
2018-12-27T07:41:04.008Z,33.13
2018-12-27T07:43:34.419Z,33.60
2018-12-27T07:46:10.842Z,34.47
2018-12-27T07:48:36.835Z,32.97
2018-12-27T07:51:07.604Z,38.33
2018-12-27T07:53:37.948Z,32.57
2018-12-27T07:56:08.328Z,35.70
2018-12-27T07:58:38.711Z,30.63
2018-12-27T08:01:09.061Z,31.43
2018-12-27T08:03:39.504Z,37.90
2018-12-27T08:06:09.848Z,29.73
2018-12-27T08:08:40.271Z,30.90
2018-12-27T08:11:10.612Z,33.97
2018-12-27T08:13:43.558Z,31.57
2018-12-27T08:16:13.887Z,32.87
2018-12-27T08:18:44.263Z,28.37
2018-12-27T08:21:14.592Z,32.00
2018-12-27T08:23:44.943Z,30.50
2018-12-27T08:26:15.307Z,33.60
2018-12-27T08:28:45.672Z,31.30
2018-12-27T08:31:16.019Z,31.40
2018-12-27T08:33:46.368Z,30.97
2018-12-27T08:36:16.783Z,34.60
2018-12-27T08:38:47.124Z,33.67
2018-12-27T08:41:17.467Z,34.67
2018-12-27T08:43:48.076Z,32.57
2018-12-27T08:46:18.809Z,31.63
2018-12-27T08:48:49.551Z,32.13
2018-12-27T08:51:19.891Z,35.10
2018-12-27T08:53:50.281Z,31.33
2018-12-27T08:56:20.616Z,30.93
2018-12-27T08:58:50.987Z,32.20
2018-12-27T09:01:21.320Z,33.07
2018-12-27T09:03:51.659Z,32.23
2018-12-27T09:06:22.064Z,33.47
2018-12-27T09:08:52.408Z,32.97
2018-12-27T09:11:22.743Z,30.90
2018-12-27T09:13:53.590Z,32.37
2018-12-27T09:16:23.928Z,37.67
2018-12-27T09:18:54.341Z,31.43
2018-12-27T09:21:24.674Z,33.20
2018-12-27T09:23:55.083Z,29.50
2018-12-27T09:26:25.475Z,29.73
2018-12-27T09:28:55.803Z,27.93
2018-12-27T09:31:26.147Z,26.57
2018-12-27T09:33:56.520Z,28.27
2018-12-27T09:36:26.880Z,27.87
2018-12-27T09:38:57.247Z,27.13
2018-12-27T09:41:27.583Z,32.43
2018-12-27T09:43:58.243Z,27.40
2018-12-27T09:46:28.691Z,25.20
2018-12-27T09:48:59.449Z,29.30
2018-12-27T09:51:29.796Z,30.17
2018-12-27T09:54:00.132Z,32.67
2018-12-27T09:56:30.859Z,29.90
2018-12-27T09:59:01.191Z,30.07
2018-12-27T10:01:31.605Z,35.87
2018-12-27T10:04:01.969Z,34.90
2018-12-27T10:06:32.340Z,33.63
2018-12-27T10:09:02.683Z,28.40
2018-12-27T10:11:33.054Z,32.73
2018-12-27T10:14:03.724Z,29.70
2018-12-27T10:16:34.107Z,34.20
2018-12-27T10:19:04.435Z,28.90
2018-12-27T10:21:34.807Z,28.23
2018-12-27T10:24:05.157Z,28.47
2018-12-27T10:26:35.523Z,29.63
2018-12-27T10:29:05.873Z,28.43
2018-12-27T10:31:36.240Z,33.73
2018-12-27T10:34:06.796Z,31.90
2018-12-27T10:36:37.299Z,35.07
2018-12-27T10:39:10.591Z,36.07
2018-12-27T10:41:40.919Z,30.63
2018-12-27T10:44:11.297Z,38.70
2018-12-27T10:46:41.842Z,34.10
2018-12-27T10:49:12.246Z,32.13
2018-12-27T10:51:42.928Z,29.57
2018-12-27T10:54:13.338Z,32.90
2018-12-27T10:56:43.839Z,34.53
2018-12-27T10:59:14.172Z,38.00
2018-12-27T11:01:44.923Z,34.63
2018-12-27T11:04:15.255Z,31.20
2018-12-27T11:06:45.916Z,34.40
2018-12-27T11:09:16.339Z,33.77
2018-12-27T11:11:46.672Z,30.03
2018-12-27T11:14:17.008Z,29.90
2018-12-27T11:16:47.338Z,28.30
2018-12-27T11:19:17.694Z,25.20
2018-12-27T11:21:48.097Z,28.70
2018-12-27T11:24:18.971Z,28.47
2018-12-27T11:26:49.338Z,30.40
2018-12-27T11:29:21.378Z,28.00
2018-12-27T11:31:53.487Z,27.93
2018-12-27T11:34:23.820Z,26.23
2018-12-27T11:36:54.163Z,28.07
2018-12-27T11:39:24.606Z,27.23
2018-12-27T11:41:55.284Z,27.07
2018-12-27T11:44:25.664Z,27.83
2018-12-27T11:46:56.231Z,28.20
2018-12-27T11:55:34.136Z,27.33
2018-12-27T11:58:04.484Z,24.90
2018-12-27T12:00:34.855Z,25.57
2018-12-27T12:03:05.185Z,26.87
2018-12-27T12:05:35.641Z,26.47
2018-12-27T12:08:06.047Z,24.87
2018-12-27T12:10:38.028Z,24.07
2018-12-27T12:13:08.403Z,26.33
2018-12-27T12:15:38.835Z,25.63
2018-12-27T12:18:09.199Z,24.97
2018-12-27T12:20:40.029Z,22.23
2018-12-27T12:23:10.476Z,27.60
2018-12-27T12:25:40.816Z,23.57
2018-12-27T12:28:11.547Z,21.83
2018-12-27T12:30:42.033Z,25.30
2018-12-27T12:33:12.491Z,21.03
2018-12-27T12:35:42.923Z,24.83
2018-12-27T12:38:13.429Z,21.73
2018-12-27T12:40:43.916Z,25.27
2018-12-27T12:43:14.247Z,22.70
2018-12-27T12:45:44.699Z,21.80
2018-12-27T12:48:15.142Z,24.77
2018-12-27T12:50:45.669Z,23.27
2018-12-27T12:53:16.004Z,24.70
2018-12-27T12:55:46.380Z,26.13
2018-12-27T12:58:16.873Z,25.47
2018-12-27T13:00:47.312Z,30.37
2018-12-27T13:03:18.684Z,25.90
2018-12-27T13:05:49.068Z,29.67
2018-12-27T13:08:19.523Z,24.17
2018-12-27T13:10:52.902Z,24.57
2018-12-27T13:13:23.263Z,23.40
2018-12-27T13:15:53.611Z,27.90
2018-12-27T13:18:23.971Z,30.80
2018-12-27T13:20:54.381Z,26.10
2018-12-27T13:23:24.743Z,27.20
2018-12-27T13:25:55.118Z,25.60
2018-12-27T13:28:25.539Z,24.67
2018-12-27T13:30:55.888Z,24.57
2018-12-27T13:33:26.225Z,24.47
2018-12-27T13:35:56.551Z,24.53
2018-12-27T13:38:26.927Z,23.23
2018-12-27T13:40:57.259Z,24.03
2018-12-27T13:43:27.629Z,29.70
2018-12-27T13:45:58.322Z,26.83
2018-12-27T13:48:28.763Z,23.10
2018-12-27T13:50:59.100Z,28.10
2018-12-27T13:53:29.547Z,25.47
2018-12-27T13:55:59.912Z,22.70
2018-12-27T13:58:30.295Z,24.77
2018-12-27T14:01:00.652Z,22.73
2018-12-27T14:03:31.075Z,22.30
2018-12-27T14:06:01.410Z,22.93
2018-12-27T14:08:31.936Z,21.80
2018-12-27T14:11:02.341Z,21.83
2018-12-27T14:13:32.859Z,18.27
2018-12-27T14:16:03.224Z,23.43
2018-12-27T14:18:33.670Z,21.70
2018-12-27T14:21:04.040Z,25.83
2018-12-27T14:23:34.589Z,65.13
2018-12-27T14:26:04.991Z,172.50
2018-12-27T14:28:35.359Z,67.57
2018-12-27T14:31:05.840Z,75.27
2018-12-27T14:33:36.485Z,37.03
2018-12-27T14:36:07.028Z,37.07
2018-12-27T14:38:37.391Z,48.93
2018-12-27T14:41:08.163Z,36.47
2018-12-27T14:43:38.857Z,30.17
2018-12-27T14:46:09.233Z,30.90
2018-12-27T14:48:39.564Z,28.57
2018-12-27T14:51:11.333Z,27.83
2018-12-27T14:53:41.871Z,26.33
2018-12-27T14:56:12.280Z,25.67
2018-12-27T14:58:42.624Z,20.53
2018-12-27T15:01:12.995Z,25.20
2018-12-27T15:03:43.774Z,21.60
2018-12-27T15:06:14.220Z,20.03
2018-12-27T15:08:44.555Z,23.50
2018-12-27T15:11:14.896Z,22.07
2018-12-27T15:13:45.242Z,26.77
2018-12-27T15:16:15.580Z,23.73
2018-12-27T15:18:46.028Z,26.93
2018-12-27T15:21:16.355Z,22.97
2018-12-27T15:23:46.735Z,24.93
2018-12-27T15:26:17.084Z,23.60
2018-12-27T15:28:47.484Z,26.37
2018-12-27T15:31:17.822Z,25.97
2018-12-27T15:33:48.159Z,28.23
2018-12-27T15:36:18.495Z,29.23
2018-12-27T15:38:48.831Z,29.63
2018-12-27T15:41:19.172Z,32.53
2018-12-27T15:43:49.515Z,29.70
2018-12-27T15:46:19.959Z,29.80
2018-12-27T15:48:50.316Z,28.13
2018-12-27T15:51:20.763Z,33.37
2018-12-27T15:53:51.099Z,31.27
2018-12-27T15:56:21.467Z,31.00
2018-12-27T15:58:52.096Z,29.83
2018-12-27T16:01:22.543Z,33.00
2018-12-27T16:03:52.875Z,35.23
2018-12-27T16:06:23.211Z,32.57
2018-12-27T16:08:53.552Z,37.47
2018-12-27T16:11:23.903Z,34.57
2018-12-27T16:13:54.356Z,30.50
2018-12-27T16:16:24.775Z,27.97
2018-12-27T16:18:55.135Z,30.50
2018-12-27T16:21:25.515Z,26.80
2018-12-27T16:23:55.880Z,29.27
2018-12-27T16:26:26.228Z,29.67
2018-12-27T16:28:57.635Z,31.87
2018-12-27T16:31:27.971Z,32.17
2018-12-27T16:33:58.311Z,30.70
2018-12-27T16:36:28.723Z,33.17
2018-12-27T16:38:59.429Z,30.43
2018-12-27T16:41:29.839Z,33.50
2018-12-27T16:44:00.216Z,31.93
2018-12-27T16:46:30.548Z,35.03
2018-12-27T16:49:00.984Z,29.63
2018-12-27T16:51:31.387Z,30.87
2018-12-27T16:54:01.760Z,35.00
2018-12-27T16:56:32.091Z,30.50
2018-12-27T16:59:05.635Z,30.17
2018-12-27T17:01:35.969Z,31.63
2018-12-27T17:04:06.724Z,28.80
2018-12-27T17:06:37.337Z,32.67
2018-12-27T17:09:08.531Z,34.73
2018-12-27T17:11:38.880Z,27.73
2018-12-27T17:14:09.573Z,30.43
2018-12-27T17:16:39.915Z,26.43
2018-12-27T17:19:10.291Z,27.67
2018-12-27T17:21:40.687Z,32.47
2018-12-27T17:24:11.028Z,26.83
2018-12-27T17:26:42.064Z,29.57
2018-12-27T17:29:12.502Z,24.40
2018-12-27T17:31:43.275Z,30.50
2018-12-27T17:34:13.608Z,25.20
2018-12-27T17:36:44.020Z,29.60
2018-12-27T17:39:14.355Z,30.03
2018-12-27T17:41:44.699Z,24.97
2018-12-27T17:44:15.038Z,28.30
2018-12-27T17:46:45.411Z,31.93
2018-12-27T17:49:15.743Z,32.73
2018-12-27T17:51:46.116Z,29.63
2018-12-27T17:54:16.451Z,28.77
2018-12-27T17:56:46.828Z,27.07
2018-12-27T17:59:17.752Z,31.83
2018-12-27T18:01:48.095Z,26.83
2018-12-27T18:04:18.431Z,25.93
2018-12-27T18:06:48.787Z,28.97
2018-12-27T18:09:19.155Z,28.23
2018-12-27T18:11:49.491Z,31.67
2018-12-27T18:14:19.827Z,36.43
2018-12-27T18:16:50.198Z,30.10
2018-12-27T18:19:20.595Z,30.70
2018-12-27T18:21:50.967Z,34.27
2018-12-27T18:24:21.303Z,32.67
2018-12-27T18:26:51.640Z,31.87
2018-12-27T18:29:22.299Z,31.47
2018-12-27T18:31:53.076Z,34.93
2018-12-27T18:34:27.563Z,32.53
2018-12-27T18:36:58.263Z,33.83
2018-12-27T18:39:28.603Z,34.03
2018-12-27T18:41:58.959Z,34.63
2018-12-27T18:44:29.365Z,38.03
2018-12-27T18:46:59.784Z,40.90
2018-12-27T18:49:30.123Z,38.43
2018-12-27T18:52:00.872Z,39.93
2018-12-27T18:54:31.311Z,36.03
2018-12-27T18:57:01.648Z,38.20
2018-12-27T18:59:32.016Z,31.40
2018-12-27T19:02:02.351Z,28.83
2018-12-27T19:04:32.733Z,34.23
2018-12-27T19:07:03.151Z,31.90
2018-12-27T19:09:33.492Z,36.90
2018-12-27T19:12:55.835Z,30.13
2018-12-27T19:15:28.150Z,33.97
2018-12-27T19:18:06.983Z,30.27
2018-12-27T19:20:39.554Z,27.33
2018-12-27T19:23:18.967Z,32.63
2018-12-27T19:25:49.299Z,35.27
2018-12-27T19:28:19.655Z,36.80
2018-12-27T19:30:49.991Z,33.03
2018-12-27T19:33:20.327Z,33.27
2018-12-27T19:35:51.053Z,29.83
2018-12-27T19:38:21.799Z,35.97
2018-12-27T19:40:52.136Z,45.00
2018-12-27T19:43:22.531Z,40.03
2018-12-27T19:45:52.943Z,36.57
2018-12-27T19:48:23.320Z,34.70
2018-12-27T19:50:53.739Z,32.67
2018-12-27T19:53:24.159Z,31.53
2018-12-27T19:55:54.844Z,31.37
2018-12-27T19:58:29.336Z,31.63
2018-12-27T20:01:00.119Z,30.10
2018-12-27T20:03:30.856Z,29.00
2018-12-27T20:06:01.204Z,26.80
2018-12-27T20:08:31.595Z,28.93
2018-12-27T20:11:01.982Z,29.63
2018-12-27T20:13:32.367Z,28.30
2018-12-27T20:16:02.804Z,23.90
2018-12-27T20:18:33.157Z,27.00
2018-12-27T20:21:03.580Z,27.07
2018-12-27T20:23:43.233Z,25.27
2018-12-27T20:26:13.632Z,26.80
2018-12-27T20:28:43.980Z,21.23
2018-12-27T20:31:14.924Z,30.47
2018-12-27T20:33:45.296Z,27.87
2018-12-27T20:36:15.632Z,22.50
2018-12-27T20:38:46.092Z,24.10
2018-12-27T20:41:16.427Z,21.87
2018-12-27T20:43:47.132Z,21.27
2018-12-27T20:46:17.463Z,18.13
2018-12-27T20:48:47.912Z,23.90
2018-12-27T20:51:18.243Z,24.53
2018-12-27T20:53:48.619Z,19.63
2018-12-27T20:56:19.300Z,26.23
2018-12-27T20:58:49.631Z,26.00
2018-12-27T21:01:20.063Z,23.67
2018-12-27T21:03:50.415Z,22.47
2018-12-27T21:06:21.121Z,23.60
2018-12-27T21:08:51.646Z,22.37
2018-12-27T21:11:22.032Z,26.03
2018-12-27T21:13:52.391Z,30.67
2018-12-27T21:16:22.724Z,24.30
2018-12-27T21:18:53.460Z,19.90
2018-12-27T21:21:23.888Z,24.17
2018-12-27T21:23:54.351Z,21.77
2018-12-27T21:26:25.767Z,25.60
2018-12-27T21:28:56.124Z,23.73
2018-12-27T21:31:26.467Z,20.77
2018-12-27T21:33:56.860Z,23.80
2018-12-27T21:36:27.281Z,23.50
2018-12-27T21:38:57.744Z,23.03
2018-12-27T21:41:28.211Z,24.53
2018-12-27T21:43:58.627Z,21.93
2018-12-27T21:46:28.961Z,18.10
2018-12-27T21:48:59.295Z,22.00
2018-12-27T21:51:29.643Z,25.37
2018-12-27T21:54:00.073Z,20.50
2018-12-27T21:56:32.654Z,17.07
2018-12-27T21:59:03.055Z,22.40
2018-12-27T22:01:33.407Z,21.30
2018-12-27T22:04:04.094Z,17.73
2018-12-27T22:06:34.467Z,17.80
2018-12-27T22:09:06.439Z,18.13
2018-12-27T22:11:36.839Z,17.57
2018-12-27T22:14:07.176Z,18.60
2018-12-27T22:16:37.551Z,17.53
2018-12-27T22:19:08.289Z,20.07
2018-12-27T22:21:38.676Z,21.77
2018-12-27T22:24:09.073Z,18.27
2018-12-27T22:26:39.412Z,19.77
2018-12-27T22:29:09.754Z,19.47
2018-12-27T22:31:40.164Z,21.00
2018-12-27T22:34:10.511Z,21.43
2018-12-27T22:36:40.842Z,22.13
2018-12-27T22:39:11.219Z,19.53
2018-12-27T22:41:41.547Z,18.37
2018-12-27T22:44:11.919Z,18.73
2018-12-27T22:46:42.247Z,18.60
2018-12-27T22:49:12.611Z,22.53
2018-12-27T22:51:42.947Z,20.93
2018-12-27T22:54:13.439Z,14.77
2018-12-27T22:56:43.772Z,18.93
2018-12-27T22:59:14.412Z,17.80
2018-12-27T23:01:44.751Z,22.70
2018-12-27T23:04:15.099Z,20.23
2018-12-27T23:06:45.744Z,18.10
2018-12-27T23:09:16.431Z,21.43
2018-12-27T23:11:46.767Z,19.53
2018-12-27T23:14:17.380Z,17.33
2018-12-27T23:16:48.787Z,19.60
2018-12-27T23:19:19.124Z,15.70
2018-12-27T23:21:49.491Z,14.53
2018-12-27T23:24:19.828Z,15.40
2018-12-27T23:26:50.595Z,15.77
2018-12-27T23:29:21.051Z,15.20
2018-12-27T23:31:51.392Z,15.70
2018-12-27T23:34:21.755Z,15.40
2018-12-27T23:36:52.095Z,14.13
2018-12-27T23:39:22.439Z,16.57
2018-12-27T23:41:52.786Z,16.93
2018-12-27T23:44:23.170Z,15.33
2018-12-27T23:46:53.559Z,20.30
2018-12-27T23:49:23.896Z,13.83
2018-12-27T23:51:54.267Z,14.07
2018-12-27T23:54:24.640Z,16.93
2018-12-27T23:56:55.011Z,15.50
2018-12-27T23:59:25.354Z,12.47
